createdAt,value
2018-05-12T00:00:13.069Z,16.70
2018-05-12T00:01:13.069Z,18.90
2018-05-12T00:02:13.112Z,15.40
2018-05-12T00:03:13.069Z,16.00
2018-05-12T00:04:13.072Z,14.70
2018-05-12T00:05:13.074Z,22.00
2018-05-12T00:06:13.080Z,41.20
2018-05-12T00:07:13.078Z,36.80
2018-05-12T00:08:13.091Z,26.90
2018-05-12T00:09:14.036Z,22.90
2018-05-12T00:10:13.078Z,16.20
2018-05-12T00:11:13.082Z,15.60
2018-05-12T00:12:13.083Z,15.50
2018-05-12T00:13:13.087Z,15.70
2018-05-12T00:14:13.083Z,24.20
2018-05-12T00:15:13.087Z,20.70
2018-05-12T00:16:13.088Z,20.10
2018-05-12T00:17:13.086Z,18.00
2018-05-12T00:18:13.112Z,19.50
2018-05-12T00:19:13.090Z,28.40
2018-05-12T00:20:13.089Z,31.30
2018-05-12T00:21:13.095Z,29.20
2018-05-12T00:22:13.093Z,22.80
2018-05-12T00:23:13.108Z,28.20
2018-05-12T00:24:13.094Z,22.60
2018-05-12T00:25:13.096Z,23.50
2018-05-12T00:26:13.112Z,17.60
2018-05-12T00:27:13.117Z,16.00
2018-05-12T00:28:13.116Z,73.30
2018-05-12T00:29:13.103Z,67.90
2018-05-12T00:30:14.404Z,64.70
2018-05-12T00:31:13.102Z,29.10
2018-05-12T00:32:13.103Z,64.50
2018-05-12T00:33:13.106Z,71.50
2018-05-12T00:34:13.108Z,21.00
2018-05-12T00:35:13.108Z,22.00
2018-05-12T00:36:13.115Z,18.40
2018-05-12T00:37:13.113Z,19.80
2018-05-12T00:38:13.111Z,18.90
2018-05-12T00:39:13.120Z,16.50
2018-05-12T00:40:13.114Z,16.20
2018-05-12T00:41:13.119Z,16.30
2018-05-12T00:42:13.116Z,16.90
2018-05-12T00:43:13.116Z,16.60
2018-05-12T00:44:13.121Z,16.50
2018-05-12T00:45:13.120Z,17.10
2018-05-12T00:46:13.120Z,16.30
2018-05-12T00:47:13.121Z,16.60
2018-05-12T00:48:13.123Z,16.50
2018-05-12T00:49:13.130Z,17.60
2018-05-12T00:50:13.137Z,31.30
2018-05-12T00:51:13.154Z,25.80
2018-05-12T00:52:13.128Z,22.90
2018-05-12T00:53:13.131Z,17.80
2018-05-12T00:54:13.131Z,16.30
2018-05-12T00:55:13.179Z,16.40
2018-05-12T00:56:13.133Z,18.00
2018-05-12T00:57:13.134Z,19.60
2018-05-12T00:58:13.136Z,21.60
2018-05-12T00:59:13.135Z,22.10
2018-05-12T01:00:13.137Z,21.60
2018-05-12T01:01:13.139Z,22.70
2018-05-12T01:02:13.142Z,23.80
2018-05-12T01:03:13.141Z,22.80
2018-05-12T01:04:13.142Z,22.90
2018-05-12T01:05:13.143Z,25.00
2018-05-12T01:06:13.148Z,22.70
2018-05-12T01:07:13.147Z,24.70
2018-05-12T01:08:13.148Z,24.70
2018-05-12T01:09:13.149Z,25.30
2018-05-12T01:10:13.155Z,26.00
2018-05-12T01:11:13.164Z,25.60
2018-05-12T01:12:13.150Z,26.90
2018-05-12T01:13:13.216Z,25.70
2018-05-12T01:14:13.152Z,25.20
2018-05-12T01:15:13.155Z,26.60
2018-05-12T01:16:13.156Z,25.40
2018-05-12T01:17:13.157Z,26.00
2018-05-12T01:18:13.157Z,27.00
2018-05-12T01:19:13.157Z,26.50
2018-05-12T01:20:13.160Z,25.50
2018-05-12T01:21:13.162Z,26.80
2018-05-12T01:22:13.171Z,26.60
2018-05-12T01:23:13.164Z,25.70
2018-05-12T01:24:13.163Z,26.60
2018-05-12T01:25:13.256Z,26.30
2018-05-12T01:26:13.166Z,26.70
2018-05-12T01:27:13.167Z,26.70
2018-05-12T01:28:13.172Z,27.20
2018-05-12T01:29:13.166Z,26.70
2018-05-12T01:30:13.169Z,26.40
2018-05-12T01:31:13.170Z,25.60
2018-05-12T01:32:13.170Z,26.70
2018-05-12T01:33:13.174Z,25.50
2018-05-12T01:34:13.171Z,26.90
2018-05-12T01:35:13.173Z,26.30
2018-05-12T01:36:13.173Z,47.20
2018-05-12T01:37:13.174Z,41.80
2018-05-12T01:38:13.177Z,29.80
2018-05-12T01:39:13.184Z,23.10
2018-05-12T01:40:13.178Z,15.50
2018-05-12T01:41:13.340Z,15.20
2018-05-12T01:42:13.179Z,16.10
2018-05-12T01:43:13.178Z,16.40
2018-05-12T01:44:13.180Z,17.10
2018-05-12T01:45:13.180Z,16.30
2018-05-12T01:46:13.209Z,15.60
2018-05-12T01:47:13.182Z,31.70
2018-05-12T01:48:13.185Z,29.70
2018-05-12T01:49:13.186Z,27.70
2018-05-12T01:50:13.186Z,31.80
2018-05-12T01:51:13.185Z,29.00
2018-05-12T01:52:13.188Z,29.00
2018-05-12T01:53:13.193Z,17.80
2018-05-12T01:54:13.207Z,16.40
2018-05-12T01:55:13.191Z,36.80
2018-05-12T01:56:13.195Z,27.00
2018-05-12T01:57:13.194Z,33.50
2018-05-12T01:58:13.194Z,25.10
2018-05-12T01:59:13.195Z,28.40
2018-05-12T02:00:13.199Z,30.90
2018-05-12T02:01:13.197Z,26.10
2018-05-12T02:02:13.199Z,21.50
2018-05-12T02:03:13.239Z,24.40
2018-05-12T02:04:13.202Z,19.40
2018-05-12T02:05:13.202Z,17.20
2018-05-12T02:06:13.207Z,16.00
2018-05-12T02:07:13.205Z,16.30
2018-05-12T02:08:13.207Z,16.30
2018-05-12T02:09:13.206Z,17.40
2018-05-12T02:10:13.219Z,18.90
2018-05-12T02:11:13.207Z,18.80
2018-05-12T02:12:13.803Z,22.70
2018-05-12T02:13:13.210Z,18.30
2018-05-12T02:14:13.215Z,18.20
2018-05-12T02:15:13.211Z,18.20
2018-05-12T02:16:13.213Z,17.70
2018-05-12T02:17:13.215Z,17.60
2018-05-12T02:18:13.215Z,17.50
2018-05-12T02:19:13.215Z,17.60
2018-05-12T02:20:13.224Z,17.20
2018-05-12T02:21:13.219Z,18.00
2018-05-12T02:22:13.220Z,16.90
2018-05-12T02:23:13.221Z,17.90
2018-05-12T02:24:13.222Z,16.40
2018-05-12T02:25:13.223Z,16.40
2018-05-12T02:26:13.224Z,16.20
2018-05-12T02:27:13.225Z,16.90
2018-05-12T02:28:13.230Z,16.80
2018-05-12T02:29:13.228Z,15.80
2018-05-12T02:30:13.231Z,16.20
2018-05-12T02:31:13.229Z,16.70
2018-05-12T02:32:13.231Z,17.10
2018-05-12T02:33:13.234Z,16.80
2018-05-12T02:34:13.237Z,17.80
2018-05-12T02:35:13.233Z,16.20
2018-05-12T02:36:13.234Z,17.30
2018-05-12T02:37:13.239Z,16.60
2018-05-12T02:38:13.236Z,22.50
2018-05-12T02:39:13.240Z,25.20
2018-05-12T02:40:13.240Z,26.30
2018-05-12T02:41:13.241Z,28.50
2018-05-12T02:42:13.246Z,26.90
2018-05-12T02:43:14.239Z,27.20
2018-05-12T02:44:13.244Z,27.00
2018-05-12T02:45:13.243Z,26.80
2018-05-12T02:46:13.246Z,27.30
2018-05-12T02:47:13.254Z,25.50
2018-05-12T02:48:13.246Z,26.80
2018-05-12T02:49:13.256Z,26.90
2018-05-12T02:50:13.253Z,27.20
2018-05-12T02:51:13.247Z,26.70
2018-05-12T02:52:13.249Z,27.50
2018-05-12T02:53:13.252Z,27.50
2018-05-12T02:54:13.251Z,28.60
2018-05-12T02:55:13.255Z,26.60
2018-05-12T02:56:13.253Z,17.40
2018-05-12T02:57:13.261Z,16.80
2018-05-12T02:58:13.255Z,16.80
2018-05-12T02:59:13.254Z,17.80
2018-05-12T03:00:13.254Z,17.60
2018-05-12T03:01:13.255Z,17.40
2018-05-12T03:02:13.257Z,18.40
2018-05-12T03:03:13.256Z,21.60
2018-05-12T03:04:13.258Z,20.40
2018-05-12T03:05:13.260Z,20.80
2018-05-12T03:06:13.261Z,20.60
2018-05-12T03:07:13.260Z,19.30
2018-05-12T03:08:13.260Z,18.60
2018-05-12T03:09:13.275Z,18.50
2018-05-12T03:10:13.263Z,18.30
2018-05-12T03:11:13.263Z,19.00
2018-05-12T03:12:13.264Z,19.40
2018-05-12T03:13:13.268Z,19.10
2018-05-12T03:14:13.270Z,20.30
2018-05-12T03:15:13.268Z,20.00
2018-05-12T03:16:13.265Z,19.80
2018-05-12T03:17:13.268Z,19.50
2018-05-12T03:18:34.278Z,19.20
2018-05-12T03:19:13.268Z,19.20
2018-05-12T03:20:13.270Z,20.20
2018-05-12T03:21:13.277Z,20.10
2018-05-12T03:22:13.274Z,18.90
2018-05-12T03:23:13.278Z,19.20
2018-05-12T03:24:13.273Z,18.00
2018-05-12T03:25:14.945Z,19.70
2018-05-12T03:26:13.275Z,19.20
2018-05-12T03:27:13.274Z,19.70
2018-05-12T03:28:13.277Z,21.00
2018-05-12T03:29:13.276Z,19.40
2018-05-12T03:30:13.281Z,19.80
2018-05-12T03:31:13.279Z,19.80
2018-05-12T03:32:13.278Z,20.50
2018-05-12T03:33:13.283Z,19.30
2018-05-12T03:34:13.280Z,19.00
2018-05-12T03:35:13.282Z,19.30
2018-05-12T03:36:13.280Z,20.10
2018-05-12T03:37:13.281Z,20.10
2018-05-12T03:38:13.283Z,18.90
2018-05-12T03:39:13.282Z,20.20
2018-05-12T03:40:13.283Z,19.40
2018-05-12T03:41:13.284Z,20.10
2018-05-12T03:42:13.284Z,20.00
2018-05-12T03:43:13.288Z,20.60
2018-05-12T03:44:13.288Z,19.70
2018-05-12T03:45:13.287Z,20.60
2018-05-12T03:46:13.288Z,21.60
2018-05-12T03:47:13.286Z,22.10
2018-05-12T03:48:13.288Z,22.00
2018-05-12T03:49:13.289Z,22.60
2018-05-12T03:50:13.291Z,24.40
2018-05-12T03:51:13.292Z,24.00
2018-05-12T03:52:13.291Z,24.30
2018-05-12T03:53:13.292Z,23.90
2018-05-12T03:54:13.291Z,23.90
2018-05-12T03:55:13.293Z,24.20
2018-05-12T03:56:13.294Z,24.80
2018-05-12T03:57:13.293Z,24.90
2018-05-12T03:58:13.296Z,24.60
2018-05-12T03:59:13.293Z,24.30
2018-05-12T04:00:13.297Z,23.10
2018-05-12T04:01:13.296Z,23.20
2018-05-12T04:02:13.295Z,24.50
2018-05-12T04:03:13.294Z,25.00
2018-05-12T04:04:13.296Z,25.90
2018-05-12T04:05:13.298Z,24.00
2018-05-12T04:06:13.296Z,24.10
2018-05-12T04:07:13.295Z,24.80
2018-05-12T04:08:13.297Z,24.80
2018-05-12T04:09:13.297Z,23.90
2018-05-12T04:10:13.298Z,24.60
2018-05-12T04:11:13.298Z,25.10
2018-05-12T04:12:13.302Z,25.40
2018-05-12T04:13:13.299Z,24.70
2018-05-12T04:14:13.300Z,23.80
2018-05-12T04:15:13.572Z,25.10
2018-05-12T04:16:13.300Z,24.30
2018-05-12T04:17:13.300Z,24.50
2018-05-12T04:18:13.303Z,24.30
2018-05-12T04:19:13.302Z,24.50
2018-05-12T04:20:13.303Z,23.00
2018-05-12T04:21:13.306Z,24.40
2018-05-12T04:22:13.303Z,24.30
2018-05-12T04:23:13.304Z,24.00
2018-05-12T04:24:13.303Z,23.80
2018-05-12T04:25:13.305Z,24.10
2018-05-12T04:26:13.306Z,24.10
2018-05-12T04:27:13.307Z,23.60
2018-05-12T04:28:13.304Z,23.70
2018-05-12T04:29:13.306Z,24.20
2018-05-12T04:30:13.307Z,25.50
2018-05-12T04:31:13.311Z,25.00
2018-05-12T04:32:13.309Z,25.60
2018-05-12T04:33:13.311Z,25.80
2018-05-12T04:34:13.310Z,25.80
2018-05-12T04:35:13.309Z,25.70
2018-05-12T04:36:13.314Z,24.90
2018-05-12T04:37:13.313Z,26.00
2018-05-12T04:38:13.313Z,24.60
2018-05-12T04:39:13.314Z,24.90
2018-05-12T04:40:13.313Z,23.90
2018-05-12T04:41:13.332Z,24.80
2018-05-12T04:42:13.315Z,23.60
2018-05-12T04:43:13.321Z,24.60
2018-05-12T04:44:13.315Z,25.90
2018-05-12T04:45:13.322Z,25.70
2018-05-12T04:46:14.020Z,27.00
2018-05-12T04:47:13.319Z,25.50
2018-05-12T04:48:13.322Z,25.20
2018-05-12T04:49:13.320Z,25.70
2018-05-12T04:50:13.321Z,25.30
2018-05-12T04:51:13.321Z,24.90
2018-05-12T04:52:13.321Z,27.40
2018-05-12T04:53:13.323Z,26.40
2018-05-12T04:54:13.399Z,24.80
2018-05-12T04:55:13.325Z,26.20
2018-05-12T04:56:13.324Z,26.10
2018-05-12T04:57:13.326Z,26.10
2018-05-12T04:58:13.326Z,26.40
2018-05-12T04:59:13.326Z,26.10
2018-05-12T05:00:13.329Z,25.60
2018-05-12T05:01:13.328Z,26.90
2018-05-12T05:02:13.330Z,27.60
2018-05-12T05:03:13.335Z,27.90
2018-05-12T05:04:13.386Z,28.50
2018-05-12T05:05:13.334Z,30.20
2018-05-12T05:06:13.336Z,29.60
2018-05-12T05:07:13.333Z,29.70
2018-05-12T05:08:13.370Z,31.30
2018-05-12T05:09:13.345Z,32.90
2018-05-12T05:10:13.336Z,32.80
2018-05-12T05:11:13.339Z,32.50
2018-05-12T05:12:13.338Z,33.20
2018-05-12T05:13:13.339Z,33.60
2018-05-12T05:14:13.348Z,34.10
2018-05-12T05:15:13.419Z,33.60
2018-05-12T05:16:13.340Z,32.50
2018-05-12T05:17:13.341Z,33.20
2018-05-12T05:18:13.343Z,33.00
2018-05-12T05:19:13.342Z,32.90
2018-05-12T05:20:13.345Z,33.20
2018-05-12T05:21:13.374Z,32.40
2018-05-12T05:22:13.351Z,33.50
2018-05-12T05:23:13.354Z,33.40
2018-05-12T05:24:13.346Z,34.00
2018-05-12T05:25:13.348Z,33.80
2018-05-12T05:26:13.349Z,35.30
2018-05-12T05:27:13.349Z,34.00
2018-05-12T05:28:13.351Z,33.90
2018-05-12T05:29:13.351Z,33.00
2018-05-12T05:30:13.353Z,33.60
2018-05-12T05:31:13.353Z,33.10
2018-05-12T05:32:13.353Z,35.00
2018-05-12T05:33:13.355Z,35.00
2018-05-12T05:34:13.356Z,33.60
2018-05-12T05:35:13.376Z,33.90
2018-05-12T05:36:13.357Z,33.90
2018-05-12T05:37:13.358Z,33.90
2018-05-12T05:38:13.359Z,35.40
2018-05-12T05:39:13.361Z,34.30
2018-05-12T05:40:13.361Z,33.00
2018-05-12T05:41:13.364Z,34.50
2018-05-12T05:42:13.363Z,34.70
2018-05-12T05:43:13.362Z,33.10
2018-05-12T05:44:13.367Z,34.10
2018-05-12T05:45:13.373Z,33.60
2018-05-12T05:46:13.373Z,33.60
2018-05-12T05:47:13.369Z,34.50
2018-05-12T05:48:13.368Z,33.20
2018-05-12T05:49:13.369Z,35.30
2018-05-12T05:50:13.380Z,35.40
2018-05-12T05:51:13.369Z,34.50
2018-05-12T05:52:13.370Z,35.00
2018-05-12T05:53:13.373Z,33.50
2018-05-12T05:54:13.375Z,33.80
2018-05-12T05:55:13.378Z,33.90
2018-05-12T05:56:13.374Z,33.80
2018-05-12T05:57:13.376Z,34.40
2018-05-12T05:58:13.381Z,34.10
2018-05-12T05:59:13.378Z,32.60
2018-05-12T06:00:13.378Z,33.00
2018-05-12T06:01:13.380Z,33.40
2018-05-12T06:02:13.381Z,33.00
2018-05-12T06:03:13.381Z,32.60
2018-05-12T06:04:13.400Z,32.90
2018-05-12T06:05:13.382Z,32.50
2018-05-12T06:06:13.388Z,32.80
2018-05-12T06:07:13.501Z,35.50
2018-05-12T06:08:13.387Z,33.60
2018-05-12T06:09:13.388Z,33.80
2018-05-12T06:10:13.389Z,32.90
2018-05-12T06:11:13.389Z,33.00
2018-05-12T06:12:13.464Z,34.70
2018-05-12T06:13:13.411Z,34.30
2018-05-12T06:14:13.401Z,33.20
2018-05-12T06:15:13.394Z,33.10
2018-05-12T06:16:13.394Z,34.40
2018-05-12T06:17:13.397Z,32.90
2018-05-12T06:18:13.419Z,32.50
2018-05-12T06:19:13.396Z,32.40
2018-05-12T06:20:13.399Z,32.20
2018-05-12T06:21:13.400Z,32.90
2018-05-12T06:22:13.402Z,32.40
2018-05-12T06:23:13.403Z,33.40
2018-05-12T06:24:13.403Z,31.60
2018-05-12T06:25:13.406Z,33.40
2018-05-12T06:26:13.411Z,32.70
2018-05-12T06:27:13.407Z,32.70
2018-05-12T06:28:13.410Z,32.60
2018-05-12T06:29:13.408Z,32.10
2018-05-12T06:30:13.410Z,33.90
2018-05-12T06:31:13.412Z,33.00
2018-05-12T06:32:13.415Z,34.60
2018-05-12T06:33:13.415Z,33.90
2018-05-12T06:34:13.418Z,34.00
2018-05-12T06:35:13.420Z,33.20
2018-05-12T06:36:13.419Z,33.00
2018-05-12T06:37:13.422Z,32.30
2018-05-12T06:38:13.423Z,32.20
2018-05-12T06:39:13.423Z,34.90
2018-05-12T06:40:13.426Z,33.50
2018-05-12T06:41:13.427Z,35.70
2018-05-12T06:42:13.430Z,34.40
2018-05-12T06:43:13.442Z,32.80
2018-05-12T06:44:13.432Z,32.60
2018-05-12T06:45:13.433Z,34.30
2018-05-12T06:46:13.436Z,32.70
2018-05-12T06:47:13.437Z,32.50
2018-05-12T06:48:13.440Z,33.20
2018-05-12T06:49:13.556Z,32.40
2018-05-12T06:50:13.447Z,34.70
2018-05-12T06:51:13.445Z,32.40
2018-05-12T06:52:13.448Z,32.70
2018-05-12T06:53:13.455Z,31.90
2018-05-12T06:54:13.452Z,33.70
2018-05-12T06:55:13.456Z,35.20
2018-05-12T06:56:13.454Z,33.20
2018-05-12T06:57:13.456Z,34.10
2018-05-12T06:58:13.464Z,33.50
2018-05-12T06:59:13.463Z,32.80
2018-05-12T07:00:13.463Z,34.50
2018-05-12T07:01:13.466Z,33.40
2018-05-12T07:02:13.471Z,33.80
2018-05-12T07:03:13.469Z,33.90
2018-05-12T07:04:13.471Z,32.80
2018-05-12T07:05:13.473Z,34.60
2018-05-12T07:06:13.477Z,35.20
2018-05-12T07:07:13.479Z,33.40
2018-05-12T07:08:13.480Z,34.50
2018-05-12T07:09:13.484Z,34.60
2018-05-12T07:10:13.486Z,34.00
2018-05-12T07:11:13.487Z,35.00
2018-05-12T07:12:13.548Z,34.40
2018-05-12T07:13:13.493Z,34.00
2018-05-12T07:14:13.498Z,35.80
2018-05-12T07:15:13.497Z,34.70
2018-05-12T07:16:13.498Z,35.10
2018-05-12T07:17:13.500Z,35.80
2018-05-12T07:18:13.503Z,34.70
2018-05-12T07:19:13.508Z,33.90
2018-05-12T07:20:13.963Z,33.90
2018-05-12T07:21:13.512Z,33.80
2018-05-12T07:22:13.512Z,36.40
2018-05-12T07:23:13.520Z,34.60
2018-05-12T07:24:13.526Z,33.30
2018-05-12T07:25:13.518Z,33.80
2018-05-12T07:26:13.522Z,35.60
2018-05-12T07:27:13.523Z,34.90
2018-05-12T07:28:13.524Z,34.80
2018-05-12T07:29:13.526Z,35.20
2018-05-12T07:30:13.533Z,35.00
2018-05-12T07:31:13.530Z,33.70
2018-05-12T07:32:13.545Z,35.60
2018-05-12T07:33:13.534Z,34.80
2018-05-12T07:34:13.537Z,33.30
2018-05-12T07:35:13.539Z,34.20
2018-05-12T07:36:13.543Z,35.50
2018-05-12T07:37:13.545Z,34.20
2018-05-12T07:38:13.546Z,34.40
2018-05-12T07:39:13.548Z,33.30
2018-05-12T07:40:13.550Z,34.30
2018-05-12T07:41:13.554Z,35.40
2018-05-12T07:42:13.555Z,35.00
2018-05-12T07:43:13.556Z,34.30
2018-05-12T07:44:13.559Z,34.10
2018-05-12T07:45:13.560Z,34.90
2018-05-12T07:46:13.611Z,35.20
2018-05-12T07:47:13.564Z,36.10
2018-05-12T07:48:13.569Z,35.30
2018-05-12T07:49:13.569Z,35.50
2018-05-12T07:50:13.574Z,34.90
2018-05-12T07:51:14.338Z,36.00
2018-05-12T07:52:13.575Z,34.70
2018-05-12T07:53:13.577Z,36.80
2018-05-12T07:54:13.579Z,35.70
2018-05-12T07:55:13.581Z,35.10
2018-05-12T07:56:13.583Z,33.40
2018-05-12T07:57:13.584Z,35.20
2018-05-12T07:58:13.592Z,35.10
2018-05-12T07:59:13.591Z,35.70
2018-05-12T08:00:13.591Z,35.60
2018-05-12T08:01:13.594Z,36.00
2018-05-12T08:02:13.599Z,37.50
2018-05-12T08:03:13.597Z,36.20
2018-05-12T08:04:13.600Z,35.40
2018-05-12T08:05:13.604Z,35.10
2018-05-12T08:06:13.606Z,34.20
2018-05-12T08:07:13.607Z,35.50
2018-05-12T08:08:13.608Z,34.80
2018-05-12T08:09:13.629Z,35.50
2018-05-12T08:10:13.614Z,35.60
2018-05-12T08:11:13.615Z,36.00
2018-05-12T08:12:13.619Z,35.60
2018-05-12T08:13:13.621Z,34.70
2018-05-12T08:14:13.624Z,36.30
2018-05-12T08:15:13.625Z,34.60
2018-05-12T08:16:13.627Z,33.30
2018-05-12T08:17:13.630Z,33.20
2018-05-12T08:18:13.632Z,32.90
2018-05-12T08:19:13.638Z,34.30
2018-05-12T08:20:13.637Z,35.70
2018-05-12T08:21:13.640Z,34.50
2018-05-12T08:22:13.647Z,34.70
2018-05-12T08:23:13.645Z,34.60
2018-05-12T08:24:13.649Z,35.40
2018-05-12T08:25:13.686Z,34.40
2018-05-12T08:26:13.669Z,34.40
2018-05-12T08:27:13.654Z,33.30
2018-05-12T08:28:13.657Z,34.70
2018-05-12T08:29:13.664Z,36.80
2018-05-12T08:30:13.663Z,35.50
2018-05-12T08:31:13.666Z,39.20
2018-05-12T08:32:13.696Z,40.00
2018-05-12T08:33:13.687Z,35.90
2018-05-12T08:34:13.676Z,36.10
2018-05-12T08:35:13.676Z,36.30
2018-05-12T08:36:13.683Z,35.10
2018-05-12T08:37:13.682Z,34.50
2018-05-12T08:38:13.691Z,32.70
2018-05-12T08:39:13.693Z,33.80
2018-05-12T08:40:13.693Z,34.90
2018-05-12T08:41:13.701Z,34.60
2018-05-12T08:42:13.703Z,34.10
2018-05-12T08:43:13.700Z,33.10
2018-05-12T08:44:13.702Z,34.40
2018-05-12T08:45:13.706Z,34.70
2018-05-12T08:46:13.720Z,32.90
2018-05-12T08:47:13.713Z,33.20
2018-05-12T08:48:13.784Z,30.70
2018-05-12T08:49:13.723Z,31.80
2018-05-12T08:50:13.729Z,31.90
2018-05-12T08:51:13.733Z,31.40
2018-05-12T08:52:13.735Z,32.10
2018-05-12T08:53:13.787Z,39.60
2018-05-12T08:54:13.747Z,33.40
2018-05-12T08:55:13.797Z,32.60
2018-05-12T08:56:13.769Z,31.60
2018-05-12T08:57:13.766Z,32.30
2018-05-12T08:58:13.771Z,32.60
2018-05-12T08:59:13.777Z,29.60
2018-05-12T09:00:13.784Z,29.40
2018-05-12T09:01:13.799Z,30.20
2018-05-12T09:02:13.800Z,29.40
2018-05-12T09:03:13.808Z,30.10
2018-05-12T09:04:13.815Z,30.20
2018-05-12T09:05:13.823Z,28.40
2018-05-12T09:06:13.834Z,30.80
2018-05-12T09:07:13.868Z,29.10
2018-05-12T09:08:13.880Z,29.20
2018-05-12T09:09:13.857Z,29.30
2018-05-12T09:10:13.870Z,29.90
2018-05-12T09:11:13.872Z,28.40
2018-05-12T09:12:13.887Z,28.20
2018-05-12T09:13:13.892Z,30.00
2018-05-12T09:14:13.902Z,28.60
2018-05-12T09:15:13.912Z,28.40
2018-05-12T09:16:13.922Z,29.30
2018-05-12T09:17:13.930Z,28.60
2018-05-12T09:18:13.943Z,30.20
2018-05-12T09:19:14.032Z,29.30
2018-05-12T09:20:13.963Z,28.30
2018-05-12T09:21:13.978Z,28.90
2018-05-12T09:22:13.988Z,29.00
2018-05-12T09:23:13.993Z,29.10
2018-05-12T09:24:14.012Z,29.30
2018-05-12T09:25:14.013Z,29.70
2018-05-12T09:26:14.036Z,28.00
2018-05-12T09:27:14.036Z,28.10
2018-05-12T09:28:14.048Z,29.20
2018-05-12T09:29:14.055Z,27.90
2018-05-12T09:30:14.066Z,27.90
2018-05-12T09:31:14.076Z,27.40
2018-05-12T09:32:14.091Z,28.20
2018-05-12T09:33:14.131Z,28.50
2018-05-12T09:34:14.115Z,27.90
2018-05-12T09:35:14.130Z,30.10
2018-05-12T09:36:14.136Z,28.10
2018-05-12T09:37:14.147Z,27.80
2018-05-12T09:38:14.164Z,28.70
2018-05-12T09:39:14.173Z,28.00
2018-05-12T09:40:14.177Z,27.70
2018-05-12T09:41:14.194Z,27.40
2018-05-12T09:42:14.254Z,28.20
2018-05-12T09:43:14.214Z,29.10
2018-05-12T09:44:14.223Z,27.00
2018-05-12T09:45:14.232Z,26.60
2018-05-12T09:46:14.251Z,28.00
2018-05-12T09:47:14.260Z,28.30
2018-05-12T09:48:14.265Z,28.90
2018-05-12T09:49:14.284Z,28.10
2018-05-12T09:50:14.295Z,29.70
2018-05-12T09:51:14.312Z,29.50
2018-05-12T09:52:14.351Z,28.80
2018-05-12T09:53:14.325Z,29.10
2018-05-12T09:54:14.334Z,29.10
2018-05-12T09:55:14.342Z,29.20
2018-05-12T09:56:14.355Z,28.40
2018-05-12T09:57:14.363Z,28.10
2018-05-12T09:58:14.375Z,29.80
2018-05-12T09:59:14.386Z,29.30
2018-05-12T10:00:14.393Z,29.70
2018-05-12T10:01:14.405Z,28.70
2018-05-12T10:02:14.503Z,28.20
2018-05-12T10:03:14.429Z,29.10
2018-05-12T10:04:14.438Z,30.20
2018-05-12T10:05:14.442Z,29.50
2018-05-12T10:06:14.455Z,29.90
2018-05-12T10:07:14.457Z,28.70
2018-05-12T10:08:14.474Z,28.40
2018-05-12T10:09:14.481Z,28.80
2018-05-12T10:10:14.481Z,27.10
2018-05-12T10:11:14.492Z,27.50
2018-05-12T10:12:14.496Z,28.60
2018-05-12T10:13:14.505Z,27.50
2018-05-12T10:14:14.513Z,28.00
2018-05-12T10:15:14.520Z,28.20
2018-05-12T10:16:14.535Z,27.70
2018-05-12T10:17:14.538Z,27.30
2018-05-12T10:18:14.543Z,28.00
2018-05-12T10:19:14.553Z,27.70
2018-05-12T10:20:14.560Z,28.10
2018-05-12T10:21:14.569Z,27.50
2018-05-12T10:22:14.574Z,28.70
2018-05-12T10:23:14.581Z,26.90
2018-05-12T10:24:14.600Z,26.40
2018-05-12T10:25:14.595Z,26.10
2018-05-12T10:26:14.635Z,28.10
2018-05-12T10:27:14.612Z,25.90
2018-05-12T10:28:14.632Z,26.70
2018-05-12T10:29:14.630Z,26.00
2018-05-12T10:30:14.648Z,24.60
2018-05-12T10:31:14.649Z,24.00
2018-05-12T10:32:14.704Z,23.90
2018-05-12T10:33:14.668Z,24.00
2018-05-12T10:34:14.699Z,23.70
2018-05-12T10:35:14.700Z,24.60
2018-05-12T10:36:14.708Z,25.80
2018-05-12T10:37:14.713Z,24.00
2018-05-12T10:38:14.742Z,24.40
2018-05-12T10:39:14.736Z,25.00
2018-05-12T10:40:14.746Z,25.10
2018-05-12T10:41:14.788Z,25.40
2018-05-12T10:42:14.775Z,25.30
2018-05-12T10:43:14.782Z,24.40
2018-05-12T10:44:14.800Z,25.30
2018-05-12T10:45:14.806Z,25.30
2018-05-12T10:46:14.832Z,23.80
2018-05-12T10:47:14.844Z,25.10
2018-05-12T10:48:14.848Z,23.30
2018-05-12T10:49:14.864Z,23.80
2018-05-12T10:50:14.870Z,24.10
2018-05-12T10:51:14.921Z,23.60
2018-05-12T10:52:14.900Z,23.50
2018-05-12T10:53:14.915Z,25.70
2018-05-12T10:54:14.936Z,25.20
2018-05-12T10:55:14.934Z,23.90
2018-05-12T10:56:14.955Z,22.30
2018-05-12T10:57:14.965Z,23.60
2018-05-12T10:58:14.974Z,23.40
2018-05-12T10:59:14.985Z,24.00
2018-05-12T11:00:15.001Z,23.80
2018-05-12T11:01:15.014Z,24.80
2018-05-12T11:02:15.029Z,24.10
2018-05-12T11:03:15.046Z,23.30
2018-05-12T11:04:15.068Z,24.60
2018-05-12T11:05:15.066Z,25.20
2018-05-12T11:06:15.082Z,24.30
2018-05-12T11:07:15.098Z,24.80
2018-05-12T11:08:15.153Z,23.60
2018-05-12T11:09:15.127Z,25.10
2018-05-12T11:10:15.137Z,25.20
2018-05-12T11:11:15.150Z,25.00
2018-05-12T11:12:15.166Z,23.80
2018-05-12T11:13:15.180Z,24.30
2018-05-12T11:14:15.206Z,26.00
2018-05-12T11:15:15.205Z,26.00
2018-05-12T11:16:15.218Z,24.60
2018-05-12T11:17:15.233Z,26.30
2018-05-12T11:18:15.245Z,25.10
2018-05-12T11:19:15.262Z,25.90
2018-05-12T11:20:15.362Z,25.30
2018-05-12T11:21:15.285Z,25.10
2018-05-12T11:22:15.300Z,24.00
2018-05-12T11:23:15.323Z,24.00
2018-05-12T11:24:15.350Z,24.90
2018-05-12T11:25:15.425Z,24.90
2018-05-12T11:26:15.352Z,24.60
2018-05-12T11:27:15.366Z,23.40
2018-05-12T11:28:15.390Z,26.40
2018-05-12T11:29:15.390Z,24.40
2018-05-12T11:30:15.405Z,25.80
2018-05-12T11:31:15.419Z,24.10
2018-05-12T11:32:15.540Z,25.50
2018-05-12T11:33:15.438Z,25.20
2018-05-12T11:34:15.455Z,25.80
2018-05-12T11:35:15.465Z,25.00
2018-05-12T11:36:15.493Z,25.00
2018-05-12T11:37:15.486Z,25.20
2018-05-12T11:38:15.498Z,25.40
2018-05-12T11:39:15.507Z,24.60
2018-05-12T11:40:15.528Z,24.10
2018-05-12T11:41:15.557Z,24.10
2018-05-12T11:42:15.564Z,25.60
2018-05-12T11:43:15.549Z,25.00
2018-05-12T11:44:15.563Z,25.10
2018-05-12T11:45:15.575Z,24.60
2018-05-12T11:46:15.584Z,24.10
2018-05-12T11:47:15.595Z,24.00
2018-05-12T11:48:15.607Z,24.30
2018-05-12T11:49:15.622Z,23.80
2018-05-12T11:50:15.636Z,23.90
2018-05-12T11:51:15.646Z,24.20
2018-05-12T11:52:15.654Z,25.50
2018-05-12T11:53:15.666Z,25.90
2018-05-12T11:54:15.677Z,27.30
2018-05-12T11:55:15.687Z,26.30
2018-05-12T11:56:15.709Z,27.50
2018-05-12T11:57:15.710Z,24.90
2018-05-12T11:58:15.739Z,24.30
2018-05-12T11:59:15.740Z,26.70
2018-05-12T12:00:15.743Z,23.70
2018-05-12T12:01:15.753Z,24.90
2018-05-12T12:02:15.764Z,24.30
2018-05-12T12:03:15.774Z,25.30
2018-05-12T12:04:15.810Z,25.80
2018-05-12T12:05:15.814Z,28.00
2018-05-12T12:06:15.816Z,27.30
2018-05-12T12:07:15.822Z,27.00
2018-05-12T12:08:15.835Z,25.00
2018-05-12T12:09:15.844Z,24.00
2018-05-12T12:10:15.851Z,24.60
2018-05-12T12:11:15.864Z,24.30
2018-05-12T12:12:15.874Z,24.50
2018-05-12T12:13:15.881Z,24.50
2018-05-12T12:14:15.927Z,24.80
2018-05-12T12:15:15.901Z,25.10
2018-05-12T12:16:15.915Z,25.10
2018-05-12T12:17:15.950Z,24.60
2018-05-12T12:18:15.936Z,23.10
2018-05-12T12:19:15.939Z,25.00
2018-05-12T12:20:15.957Z,26.90
2018-05-12T12:21:15.972Z,25.60
2018-05-12T12:22:15.966Z,25.80
2018-05-12T12:23:15.973Z,26.00
2018-05-12T12:24:15.985Z,24.30
2018-05-12T12:25:16.017Z,23.70
2018-05-12T12:26:16.000Z,23.70
2018-05-12T12:27:16.008Z,23.80
2018-05-12T12:28:16.019Z,24.70
2018-05-12T12:29:16.024Z,22.80
2018-05-12T12:30:16.031Z,21.50
2018-05-12T12:31:16.335Z,21.70
2018-05-12T12:32:16.046Z,21.50
2018-05-12T12:33:16.071Z,23.20
2018-05-12T12:34:16.063Z,23.80
2018-05-12T12:35:16.071Z,24.20
2018-05-12T12:36:16.077Z,23.40
2018-05-12T12:37:16.084Z,23.40
2018-05-12T12:38:16.093Z,22.50
2018-05-12T12:39:16.102Z,24.70
2018-05-12T12:40:16.108Z,26.30
2018-05-12T12:41:16.114Z,24.60
2018-05-12T12:42:16.123Z,22.80
2018-05-12T12:43:16.129Z,23.80
2018-05-12T12:44:16.136Z,25.50
2018-05-12T12:45:16.159Z,23.70
2018-05-12T12:46:16.150Z,36.20
2018-05-12T12:47:16.158Z,22.60
2018-05-12T12:48:16.164Z,22.90
2018-05-12T12:49:16.174Z,22.50
2018-05-12T12:50:16.179Z,21.90
2018-05-12T12:51:16.189Z,22.10
2018-05-12T12:52:16.193Z,21.40